Hurghada, Egypt
Current Conditions -  °F | °C
As of 3:00 PM on Tuesday 21 Oct 2014 (Local Time) from HEGN Reporting Station
Clear Clear  
Wind Chill: 29°   Ceiling: Unl
Heat Index: 29°   Visibility: 6mi
Dew Point: 14°   Wind: 10mph
Humidity: 40%   Direction: 20°NNE
Pressure: 29.91"   Gusts: NA
Location:  27.23°N, 33.83°E
Report Text: HEGN 211300Z 02009KT CAVOK 29/14 Q1013 NOSIG
Loading
Personal Weather Stations






























Interactive Weather Map
Tropical Storm Tracking
New forecast layout! Learn more

10-Day Weather Forecast

Advertisements
Track Severe Weather on mobile